sensor_id;sensor_type;location;lat;lon;timestamp;temperature;humidity
8928;DHT22;4499;48.304;11.902;2023-03-23T00:02:04;8.30;99.90
8928;DHT22;4499;48.304;11.902;2023-03-23T00:04:31;8.30;99.90
8928;DHT22;4499;48.304;11.902;2023-03-23T00:06:58;8.20;99.90
8928;DHT22;4499;48.304;11.902;2023-03-23T00:09:26;8.20;99.90
8928;DHT22;4499;48.304;11.902;2023-03-23T00:11:53;8.20;99.90
8928;DHT22;4499;48.304;11.902;2023-03-23T00:14:24;8.20;99.90
8928;DHT22;4499;48.304;11.902;2023-03-23T00:16:51;8.20;99.90
8928;DHT22;4499;48.304;11.902;2023-03-23T00:19:18;8.10;99.90
8928;DHT22;4499;48.304;11.902;2023-03-23T00:21:46;8.10;99.90
8928;DHT22;4499;48.304;11.902;2023-03-23T00:24:14;8.10;99.90
8928;DHT22;4499;48.304;11.902;2023-03-23T00:26:44;8.00;99.90
8928;DHT22;4499;48.304;11.902;2023-03-23T00:29:14;8.00;99.90
8928;DHT22;4499;48.304;11.902;2023-03-23T00:31:45;7.90;99.90
8928;DHT22;4499;48.304;11.902;2023-03-23T00:34:14;7.90;99.90
8928;DHT22;4499;48.304;11.902;2023-03-23T00:36:45;7.90;99.90
8928;DHT22;4499;48.304;11.902;2023-03-23T00:39:12;7.90;99.90
8928;DHT22;4499;48.304;11.902;2023-03-23T00:41:41;7.90;99.90
8928;DHT22;4499;48.304;11.902;2023-03-23T00:44:09;7.90;99.90
8928;DHT22;4499;48.304;11.902;2023-03-23T00:46:36;7.80;99.90
8928;DHT22;4499;48.304;11.902;2023-03-23T00:49:12;7.80;99.90
8928;DHT22;4499;48.304;11.902;2023-03-23T00:51:39;7.70;99.90
8928;DHT22;4499;48.304;11.902;2023-03-23T00:54:06;7.70;99.90
8928;DHT22;4499;48.304;11.902;2023-03-23T00:56:34;7.70;99.90
8928;DHT22;4499;48.304;11.902;2023-03-23T00:59:02;7.70;99.90
8928;DHT22;4499;48.304;11.902;2023-03-23T01:01:32;7.70;99.90
8928;DHT22;4499;48.304;11.902;2023-03-23T01:04:00;7.70;99.90
8928;DHT22;4499;48.304;11.902;2023-03-23T01:06:31;7.60;99.90
8928;DHT22;4499;48.304;11.902;2023-03-23T01:09:02;7.60;99.90
8928;DHT22;4499;48.304;11.902;2023-03-23T01:11:29;7.60;99.90
8928;DHT22;4499;48.304;11.902;2023-03-23T01:13:57;7.60;99.90
8928;DHT22;4499;48.304;11.902;2023-03-23T01:16:24;7.60;99.90
8928;DHT22;4499;48.304;11.902;2023-03-23T01:18:51;7.60;99.90
8928;DHT22;4499;48.304;11.902;2023-03-23T01:21:19;7.60;99.90
8928;DHT22;4499;48.304;11.902;2023-03-23T01:23:48;7.60;99.90
8928;DHT22;4499;48.304;11.902;2023-03-23T01:26:17;7.60;99.90
8928;DHT22;4499;48.304;11.902;2023-03-23T01:28:45;7.60;99.90
8928;DHT22;4499;48.304;11.902;2023-03-23T01:31:13;7.60;99.90
8928;DHT22;4499;48.304;11.902;2023-03-23T01:33:42;7.50;99.90
8928;DHT22;4499;48.304;11.902;2023-03-23T01:36:11;7.50;99.90
8928;DHT22;4499;48.304;11.902;2023-03-23T01:38:38;7.60;99.90
8928;DHT22;4499;48.304;11.902;2023-03-23T01:41:07;7.50;99.90
8928;DHT22;4499;48.304;11.902;2023-03-23T01:43:34;7.60;99.90
8928;DHT22;4499;48.304;11.902;2023-03-23T01:46:02;7.60;99.90
8928;DHT22;4499;48.304;11.902;2023-03-23T01:48:32;7.60;99.90
8928;DHT22;4499;48.304;11.902;2023-03-23T01:51:02;7.60;99.90
8928;DHT22;4499;48.304;11.902;2023-03-23T01:53:34;7.60;99.90
8928;DHT22;4499;48.304;11.902;2023-03-23T01:56:02;7.60;99.90
8928;DHT22;4499;48.304;11.902;2023-03-23T01:58:32;7.60;99.90
8928;DHT22;4499;48.304;11.902;2023-03-23T02:01:03;7.60;99.90
8928;DHT22;4499;48.304;11.902;2023-03-23T02:03:32;7.60;99.90
8928;DHT22;4499;48.304;11.902;2023-03-23T02:08:31;7.60;99.90
8928;DHT22;4499;48.304;11.902;2023-03-23T02:10:59;7.50;99.90
8928;DHT22;4499;48.304;11.902;2023-03-23T02:13:27;7.50;99.90
8928;DHT22;4499;48.304;11.902;2023-03-23T02:16:03;7.50;99.90
8928;DHT22;4499;48.304;11.902;2023-03-23T02:18:44;7.50;99.90
8928;DHT22;4499;48.304;11.902;2023-03-23T02:21:50;7.50;99.90
8928;DHT22;4499;48.304;11.902;2023-03-23T02:24:50;7.60;99.90
8928;DHT22;4499;48.304;11.902;2023-03-23T02:27:35;7.60;99.90
8928;DHT22;4499;48.304;11.902;2023-03-23T02:30:19;7.60;99.90
8928;DHT22;4499;48.304;11.902;2023-03-23T02:33:25;7.60;99.90
8928;DHT22;4499;48.304;11.902;2023-03-23T02:35:57;7.70;99.90
8928;DHT22;4499;48.304;11.902;2023-03-23T02:38:31;7.70;99.90
8928;DHT22;4499;48.304;11.902;2023-03-23T02:41:01;7.60;99.90
8928;DHT22;4499;48.304;11.902;2023-03-23T02:43:33;7.70;99.90
8928;DHT22;4499;48.304;11.902;2023-03-23T02:46:05;7.70;99.90
8928;DHT22;4499;48.304;11.902;2023-03-23T02:48:38;7.70;99.90
8928;DHT22;4499;48.304;11.902;2023-03-23T02:51:08;7.70;99.90
8928;DHT22;4499;48.304;11.902;2023-03-23T02:53:39;7.70;99.90
8928;DHT22;4499;48.304;11.902;2023-03-23T02:56:08;7.70;99.90
8928;DHT22;4499;48.304;11.902;2023-03-23T02:58:37;7.70;99.90
8928;DHT22;4499;48.304;11.902;2023-03-23T03:04:13;7.70;99.90
8928;DHT22;4499;48.304;11.902;2023-03-23T03:06:49;7.70;99.90
8928;DHT22;4499;48.304;11.902;2023-03-23T03:09:25;7.70;99.90
8928;DHT22;4499;48.304;11.902;2023-03-23T03:11:58;7.70;99.90
8928;DHT22;4499;48.304;11.902;2023-03-23T03:14:31;7.70;99.90
8928;DHT22;4499;48.304;11.902;2023-03-23T03:17:02;7.70;99.90
8928;DHT22;4499;48.304;11.902;2023-03-23T03:19:35;7.70;99.90
8928;DHT22;4499;48.304;11.902;2023-03-23T03:22:05;7.70;99.90
8928;DHT22;4499;48.304;11.902;2023-03-23T03:24:34;7.60;99.90
8928;DHT22;4499;48.304;11.902;2023-03-23T03:27:05;7.60;99.90
8928;DHT22;4499;48.304;11.902;2023-03-23T03:29:34;7.60;99.90
8928;DHT22;4499;48.304;11.902;2023-03-23T03:32:06;7.60;99.90
8928;DHT22;4499;48.304;11.902;2023-03-23T03:34:35;7.60;99.90
8928;DHT22;4499;48.304;11.902;2023-03-23T03:37:02;7.60;99.90
8928;DHT22;4499;48.304;11.902;2023-03-23T03:39:34;7.60;99.90
8928;DHT22;4499;48.304;11.902;2023-03-23T03:42:02;7.60;99.90
8928;DHT22;4499;48.304;11.902;2023-03-23T03:44:29;7.60;99.90
8928;DHT22;4499;48.304;11.902;2023-03-23T03:47:00;7.60;99.90
8928;DHT22;4499;48.304;11.902;2023-03-23T03:49:27;7.60;99.90
8928;DHT22;4499;48.304;11.902;2023-03-23T03:51:55;7.60;99.90
8928;DHT22;4499;48.304;11.902;2023-03-23T03:54:22;7.60;99.90
8928;DHT22;4499;48.304;11.902;2023-03-23T03:56:49;7.70;99.90
8928;DHT22;4499;48.304;11.902;2023-03-23T03:59:17;7.70;99.90
8928;DHT22;4499;48.304;11.902;2023-03-23T04:01:44;7.70;99.90
8928;DHT22;4499;48.304;11.902;2023-03-23T04:04:11;7.70;99.90
8928;DHT22;4499;48.304;11.902;2023-03-23T04:06:38;7.80;99.90
8928;DHT22;4499;48.304;11.902;2023-03-23T04:09:07;7.80;99.90
8928;DHT22;4499;48.304;11.902;2023-03-23T04:11:34;7.80;99.90
8928;DHT22;4499;48.304;11.902;2023-03-23T04:14:01;7.80;99.90
8928;DHT22;4499;48.304;11.902;2023-03-23T04:16:29;7.80;99.90
8928;DHT22;4499;48.304;11.902;2023-03-23T04:18:56;7.80;99.90
8928;DHT22;4499;48.304;11.902;2023-03-23T04:21:23;7.80;99.90
8928;DHT22;4499;48.304;11.902;2023-03-23T04:23:54;7.80;99.90
8928;DHT22;4499;48.304;11.902;2023-03-23T04:26:26;7.80;99.90
8928;DHT22;4499;48.304;11.902;2023-03-23T04:28:54;7.80;99.90
8928;DHT22;4499;48.304;11.902;2023-03-23T04:31:21;7.90;99.90
8928;DHT22;4499;48.304;11.902;2023-03-23T04:33:50;7.90;99.90
8928;DHT22;4499;48.304;11.902;2023-03-23T04:36:19;7.90;99.90
8928;DHT22;4499;48.304;11.902;2023-03-23T04:38:48;7.90;99.90
8928;DHT22;4499;48.304;11.902;2023-03-23T04:41:20;7.90;99.90
8928;DHT22;4499;48.304;11.902;2023-03-23T04:43:50;7.90;99.90
8928;DHT22;4499;48.304;11.902;2023-03-23T04:46:19;7.90;99.90
8928;DHT22;4499;48.304;11.902;2023-03-23T04:48:47;7.90;99.90
8928;DHT22;4499;48.304;11.902;2023-03-23T04:51:14;7.90;99.90
8928;DHT22;4499;48.304;11.902;2023-03-23T04:53:41;7.90;99.90
8928;DHT22;4499;48.304;11.902;2023-03-23T04:56:08;7.90;99.90
8928;DHT22;4499;48.304;11.902;2023-03-23T04:58:35;7.90;99.90
8928;DHT22;4499;48.304;11.902;2023-03-23T05:01:04;7.90;99.90
8928;DHT22;4499;48.304;11.902;2023-03-23T05:03:31;7.80;99.90
8928;DHT22;4499;48.304;11.902;2023-03-23T05:06:01;7.80;99.90
8928;DHT22;4499;48.304;11.902;2023-03-23T05:08:28;7.80;99.90
8928;DHT22;4499;48.304;11.902;2023-03-23T05:10:58;7.80;99.90
8928;DHT22;4499;48.304;11.902;2023-03-23T05:13:27;7.80;99.90
8928;DHT22;4499;48.304;11.902;2023-03-23T05:15:54;7.80;99.90
8928;DHT22;4499;48.304;11.902;2023-03-23T05:18:22;7.90;99.90
8928;DHT22;4499;48.304;11.902;2023-03-23T05:20:49;7.80;99.90
8928;DHT22;4499;48.304;11.902;2023-03-23T05:23:19;7.90;99.90
8928;DHT22;4499;48.304;11.902;2023-03-23T05:25:53;7.90;99.90
8928;DHT22;4499;48.304;11.902;2023-03-23T05:28:20;7.90;99.90
8928;DHT22;4499;48.304;11.902;2023-03-23T05:30:47;7.90;99.90
8928;DHT22;4499;48.304;11.902;2023-03-23T05:33:14;8.00;99.90
8928;DHT22;4499;48.304;11.902;2023-03-23T05:35:45;8.00;99.90
8928;DHT22;4499;48.304;11.902;2023-03-23T05:38:12;8.00;99.90
8928;DHT22;4499;48.304;11.902;2023-03-23T05:40:40;8.10;99.90
8928;DHT22;4499;48.304;11.902;2023-03-23T05:43:08;8.10;99.90
8928;DHT22;4499;48.304;11.902;2023-03-23T05:45:35;8.20;99.90
8928;DHT22;4499;48.304;11.902;2023-03-23T05:48:02;8.30;99.90
8928;DHT22;4499;48.304;11.902;2023-03-23T05:50:29;8.30;99.90
8928;DHT22;4499;48.304;11.902;2023-03-23T05:52:57;8.40;99.90
8928;DHT22;4499;48.304;11.902;2023-03-23T05:55:24;8.50;99.90
8928;DHT22;4499;48.304;11.902;2023-03-23T05:57:51;8.60;99.90
8928;DHT22;4499;48.304;11.902;2023-03-23T06:00:20;8.70;99.90
8928;DHT22;4499;48.304;11.902;2023-03-23T06:02:49;8.70;99.90
8928;DHT22;4499;48.304;11.902;2023-03-23T06:05:16;8.80;99.90
8928;DHT22;4499;48.304;11.902;2023-03-23T06:07:45;8.90;99.90
8928;DHT22;4499;48.304;11.902;2023-03-23T06:10:13;8.90;99.90
8928;DHT22;4499;48.304;11.902;2023-03-23T06:12:40;9.00;99.90
8928;DHT22;4499;48.304;11.902;2023-03-23T06:15:09;9.00;99.90
8928;DHT22;4499;48.304;11.902;2023-03-23T06:17:36;9.00;99.90
8928;DHT22;4499;48.304;11.902;2023-03-23T06:20:04;9.00;99.90
8928;DHT22;4499;48.304;11.902;2023-03-23T06:22:35;9.10;99.90
8928;DHT22;4499;48.304;11.902;2023-03-23T06:25:04;9.10;99.90
8928;DHT22;4499;48.304;11.902;2023-03-23T06:27:33;9.20;99.90
8928;DHT22;4499;48.304;11.902;2023-03-23T06:30:01;9.30;99.90
8928;DHT22;4499;48.304;11.902;2023-03-23T06:32:29;9.40;99.90
8928;DHT22;4499;48.304;11.902;2023-03-23T06:34:57;9.50;99.90
8928;DHT22;4499;48.304;11.902;2023-03-23T06:37:27;9.60;99.90
8928;DHT22;4499;48.304;11.902;2023-03-23T06:39:55;9.70;99.90
8928;DHT22;4499;48.304;11.902;2023-03-23T06:42:22;9.80;99.90
8928;DHT22;4499;48.304;11.902;2023-03-23T06:44:52;9.90;99.90
8928;DHT22;4499;48.304;11.902;2023-03-23T06:47:22;10.00;99.90
8928;DHT22;4499;48.304;11.902;2023-03-23T06:50:17;10.00;99.90
8928;DHT22;4499;48.304;11.902;2023-03-23T06:52:45;10.10;99.90
8928;DHT22;4499;48.304;11.902;2023-03-23T06:55:13;10.10;99.90
8928;DHT22;4499;48.304;11.902;2023-03-23T06:57:40;10.10;99.90
8928;DHT22;4499;48.304;11.902;2023-03-23T07:00:11;10.10;99.90
8928;DHT22;4499;48.304;11.902;2023-03-23T07:02:39;10.20;99.90
8928;DHT22;4499;48.304;11.902;2023-03-23T07:05:07;10.20;99.90
8928;DHT22;4499;48.304;11.902;2023-03-23T07:07:34;10.20;99.90
8928;DHT22;4499;48.304;11.902;2023-03-23T07:10:01;10.20;99.90
8928;DHT22;4499;48.304;11.902;2023-03-23T07:12:28;10.20;99.90
8928;DHT22;4499;48.304;11.902;2023-03-23T07:14:55;10.20;99.90
8928;DHT22;4499;48.304;11.902;2023-03-23T07:17:25;10.30;99.90
8928;DHT22;4499;48.304;11.902;2023-03-23T07:19:52;10.30;99.90
8928;DHT22;4499;48.304;11.902;2023-03-23T07:22:19;10.40;99.90
8928;DHT22;4499;48.304;11.902;2023-03-23T07:24:46;10.60;99.90
8928;DHT22;4499;48.304;11.902;2023-03-23T07:27:13;10.80;99.90
8928;DHT22;4499;48.304;11.902;2023-03-23T07:29:41;11.30;99.90
8928;DHT22;4499;48.304;11.902;2023-03-23T07:32:10;11.60;99.90
8928;DHT22;4499;48.304;11.902;2023-03-23T07:34:40;11.70;99.90
8928;DHT22;4499;48.304;11.902;2023-03-23T07:37:07;11.80;99.90
8928;DHT22;4499;48.304;11.902;2023-03-23T07:39:34;12.10;99.90
8928;DHT22;4499;48.304;11.902;2023-03-23T07:42:01;12.40;99.90
8928;DHT22;4499;48.304;11.902;2023-03-23T07:44:28;12.60;99.90
8928;DHT22;4499;48.304;11.902;2023-03-23T07:46:56;12.90;99.90
8928;DHT22;4499;48.304;11.902;2023-03-23T07:49:23;13.30;99.90
8928;DHT22;4499;48.304;11.902;2023-03-23T07:51:53;14.00;99.90
8928;DHT22;4499;48.304;11.902;2023-03-23T07:54:22;15.00;99.90
8928;DHT22;4499;48.304;11.902;2023-03-23T07:56:49;15.50;99.90
8928;DHT22;4499;48.304;11.902;2023-03-23T07:59:16;16.20;99.90
8928;DHT22;4499;48.304;11.902;2023-03-23T08:01:43;17.00;99.90
8928;DHT22;4499;48.304;11.902;2023-03-23T08:04:10;17.60;99.40
8928;DHT22;4499;48.304;11.902;2023-03-23T08:06:39;18.00;98.00
8928;DHT22;4499;48.304;11.902;2023-03-23T08:09:07;18.20;97.40
8928;DHT22;4499;48.304;11.902;2023-03-23T08:11:36;19.30;94.50
8928;DHT22;4499;48.304;11.902;2023-03-23T08:14:03;20.00;91.30
8928;DHT22;4499;48.304;11.902;2023-03-23T08:16:31;20.20;90.80
8928;DHT22;4499;48.304;11.902;2023-03-23T08:18:59;19.30;90.00
8928;DHT22;4499;48.304;11.902;2023-03-23T08:21:26;18.70;91.60
8928;DHT22;4499;48.304;11.902;2023-03-23T08:23:53;17.70;92.40
8928;DHT22;4499;48.304;11.902;2023-03-23T08:26:22;17.10;94.00
8928;DHT22;4499;48.304;11.902;2023-03-23T08:28:49;16.70;95.70
8928;DHT22;4499;48.304;11.902;2023-03-23T08:31:16;16.20;97.30
8928;DHT22;4499;48.304;11.902;2023-03-23T08:33:44;16.10;98.00
8928;DHT22;4499;48.304;11.902;2023-03-23T08:36:11;15.70;99.40
8928;DHT22;4499;48.304;11.902;2023-03-23T08:38:38;15.40;99.90
8928;DHT22;4499;48.304;11.902;2023-03-23T08:41:06;15.30;99.90
8928;DHT22;4499;48.304;11.902;2023-03-23T08:43:36;15.30;99.90
8928;DHT22;4499;48.304;11.902;2023-03-23T08:46:04;15.60;99.90
8928;DHT22;4499;48.304;11.902;2023-03-23T08:48:35;15.40;99.90
8928;DHT22;4499;48.304;11.902;2023-03-23T08:51:02;15.40;99.90
8928;DHT22;4499;48.304;11.902;2023-03-23T08:53:30;15.50;99.90
8928;DHT22;4499;48.304;11.902;2023-03-23T08:56:03;15.50;99.90
8928;DHT22;4499;48.304;11.902;2023-03-23T08:58:30;15.70;99.90
8928;DHT22;4499;48.304;11.902;2023-03-23T09:00:59;15.80;99.90
8928;DHT22;4499;48.304;11.902;2023-03-23T09:03:26;15.90;99.90
8928;DHT22;4499;48.304;11.902;2023-03-23T09:05:57;16.00;99.90
8928;DHT22;4499;48.304;11.902;2023-03-23T09:08:25;16.00;99.90
8928;DHT22;4499;48.304;11.902;2023-03-23T09:10:54;16.20;99.90
8928;DHT22;4499;48.304;11.902;2023-03-23T09:13:22;16.30;99.90
8928;DHT22;4499;48.304;11.902;2023-03-23T09:15:49;16.20;99.90
8928;DHT22;4499;48.304;11.902;2023-03-23T09:18:19;16.40;99.90
8928;DHT22;4499;48.304;11.902;2023-03-23T09:20:49;16.60;99.90
8928;DHT22;4499;48.304;11.902;2023-03-23T09:23:16;16.80;99.90
8928;DHT22;4499;48.304;11.902;2023-03-23T09:25:43;17.10;99.80
8928;DHT22;4499;48.304;11.902;2023-03-23T09:28:10;17.30;97.60
8928;DHT22;4499;48.304;11.902;2023-03-23T09:30:40;17.40;96.30
8928;DHT22;4499;48.304;11.902;2023-03-23T09:33:08;17.40;95.50
8928;DHT22;4499;48.304;11.902;2023-03-23T09:35:37;17.40;96.30
8928;DHT22;4499;48.304;11.902;2023-03-23T09:38:08;18.00;95.20
8928;DHT22;4499;48.304;11.902;2023-03-23T09:40:42;18.60;93.90
8928;DHT22;4499;48.304;11.902;2023-03-23T09:46:12;19.40;93.10
8928;DHT22;4499;48.304;11.902;2023-03-23T09:48:49;19.30;91.50
8928;DHT22;4499;48.304;11.902;2023-03-23T09:51:36;19.10;91.40
8928;DHT22;4499;48.304;11.902;2023-03-23T09:54:11;19.10;91.40
8928;DHT22;4499;48.304;11.902;2023-03-23T09:56:39;19.20;91.60
8928;DHT22;4499;48.304;11.902;2023-03-23T09:59:12;19.40;91.10
8928;DHT22;4499;48.304;11.902;2023-03-23T10:01:44;19.60;90.80
8928;DHT22;4499;48.304;11.902;2023-03-23T10:04:19;20.30;90.50
8928;DHT22;4499;48.304;11.902;2023-03-23T10:06:50;21.00;85.70
8928;DHT22;4499;48.304;11.902;2023-03-23T10:09:19;22.10;83.10
8928;DHT22;4499;48.304;11.902;2023-03-23T10:11:54;22.20;79.00
8928;DHT22;4499;48.304;11.902;2023-03-23T10:14:34;22.30;77.30
8928;DHT22;4499;48.304;11.902;2023-03-23T10:17:13;22.10;74.40
8928;DHT22;4499;48.304;11.902;2023-03-23T10:19:46;21.40;77.60
8928;DHT22;4499;48.304;11.902;2023-03-23T10:22:33;21.20;75.60
8928;DHT22;4499;48.304;11.902;2023-03-23T10:25:15;20.70;75.90
8928;DHT22;4499;48.304;11.902;2023-03-23T10:27:47;20.30;77.20
8928;DHT22;4499;48.304;11.902;2023-03-23T10:30:22;20.00;78.00
8928;DHT22;4499;48.304;11.902;2023-03-23T10:32:54;19.50;77.50
8928;DHT22;4499;48.304;11.902;2023-03-23T10:35:28;19.40;76.90
8928;DHT22;4499;48.304;11.902;2023-03-23T10:38:01;19.30;75.90
8928;DHT22;4499;48.304;11.902;2023-03-23T10:40:30;19.20;75.80
8928;DHT22;4499;48.304;11.902;2023-03-23T10:43:00;19.20;75.80
8928;DHT22;4499;48.304;11.902;2023-03-23T10:45:30;19.20;75.00
8928;DHT22;4499;48.304;11.902;2023-03-23T10:48:11;18.90;75.00
8928;DHT22;4499;48.304;11.902;2023-03-23T10:50:39;18.90;77.60
8928;DHT22;4499;48.304;11.902;2023-03-23T10:53:15;19.00;81.30
8928;DHT22;4499;48.304;11.902;2023-03-23T10:55:44;18.90;80.60
8928;DHT22;4499;48.304;11.902;2023-03-23T10:58:22;18.60;78.60
8928;DHT22;4499;48.304;11.902;2023-03-23T11:00:50;18.60;79.50
8928;DHT22;4499;48.304;11.902;2023-03-23T11:03:25;18.50;77.60
8928;DHT22;4499;48.304;11.902;2023-03-23T11:05:57;18.60;78.30
8928;DHT22;4499;48.304;11.902;2023-03-23T11:08:28;18.70;79.40
8928;DHT22;4499;48.304;11.902;2023-03-23T11:11:08;18.80;79.70
8928;DHT22;4499;48.304;11.902;2023-03-23T11:13:39;18.80;80.00
8928;DHT22;4499;48.304;11.902;2023-03-23T11:16:09;19.00;80.20
8928;DHT22;4499;48.304;11.902;2023-03-23T11:18:39;19.10;78.60
8928;DHT22;4499;48.304;11.902;2023-03-23T11:21:07;18.90;77.50
8928;DHT22;4499;48.304;11.902;2023-03-23T11:23:39;19.00;78.80
8928;DHT22;4499;48.304;11.902;2023-03-23T11:26:14;19.10;78.90
8928;DHT22;4499;48.304;11.902;2023-03-23T11:28:47;19.00;77.20
8928;DHT22;4499;48.304;11.902;2023-03-23T11:31:16;19.10;79.30
8928;DHT22;4499;48.304;11.902;2023-03-23T11:33:51;19.30;81.00
8928;DHT22;4499;48.304;11.902;2023-03-23T11:36:19;19.20;79.00
8928;DHT22;4499;48.304;11.902;2023-03-23T11:38:54;19.30;76.90
8928;DHT22;4499;48.304;11.902;2023-03-23T11:41:23;19.90;76.90
8928;DHT22;4499;48.304;11.902;2023-03-23T11:43:52;20.50;75.30
8928;DHT22;4499;48.304;11.902;2023-03-23T11:46:29;21.10;74.90
8928;DHT22;4499;48.304;11.902;2023-03-23T11:49:01;21.40;72.90
8928;DHT22;4499;48.304;11.902;2023-03-23T11:51:34;21.50;72.70
8928;DHT22;4499;48.304;11.902;2023-03-23T11:54:12;21.50;70.90
8928;DHT22;4499;48.304;11.902;2023-03-23T11:56:43;21.30;72.00
8928;DHT22;4499;48.304;11.902;2023-03-23T11:59:12;21.10;72.30
8928;DHT22;4499;48.304;11.902;2023-03-23T12:01:47;20.90;71.30
8928;DHT22;4499;48.304;11.902;2023-03-23T12:04:35;20.70;71.70
8928;DHT22;4499;48.304;11.902;2023-03-23T12:10:22;20.10;73.40
8928;DHT22;4499;48.304;11.902;2023-03-23T12:13:00;20.10;73.20
8928;DHT22;4499;48.304;11.902;2023-03-23T12:15:34;20.40;74.30
8928;DHT22;4499;48.304;11.902;2023-03-23T12:18:12;20.70;73.60
8928;DHT22;4499;48.304;11.902;2023-03-23T12:20:52;21.30;78.70
8928;DHT22;4499;48.304;11.902;2023-03-23T12:23:24;21.40;72.00
8928;DHT22;4499;48.304;11.902;2023-03-23T12:29:12;21.60;72.60
8928;DHT22;4499;48.304;11.902;2023-03-23T12:31:48;21.80;71.90
8928;DHT22;4499;48.304;11.902;2023-03-23T12:34:24;21.40;69.70
8928;DHT22;4499;48.304;11.902;2023-03-23T12:37:18;21.20;71.40
8928;DHT22;4499;48.304;11.902;2023-03-23T12:40:06;21.10;73.60
8928;DHT22;4499;48.304;11.902;2023-03-23T12:42:45;21.10;71.80
8928;DHT22;4499;48.304;11.902;2023-03-23T12:45:21;21.00;71.60
8928;DHT22;4499;48.304;11.902;2023-03-23T12:47:55;20.70;72.70
8928;DHT22;4499;48.304;11.902;2023-03-23T12:50:28;20.30;73.60
8928;DHT22;4499;48.304;11.902;2023-03-23T12:53:02;20.30;73.50
8928;DHT22;4499;48.304;11.902;2023-03-23T12:55:35;20.20;73.10
8928;DHT22;4499;48.304;11.902;2023-03-23T12:58:09;20.20;73.90
8928;DHT22;4499;48.304;11.902;2023-03-23T13:00:52;20.20;72.40
8928;DHT22;4499;48.304;11.902;2023-03-23T13:03:25;20.50;73.50
8928;DHT22;4499;48.304;11.902;2023-03-23T13:06:00;20.50;72.90
8928;DHT22;4499;48.304;11.902;2023-03-23T13:08:34;20.50;72.80
8928;DHT22;4499;48.304;11.902;2023-03-23T13:11:04;20.70;72.30
8928;DHT22;4499;48.304;11.902;2023-03-23T13:13:45;20.60;72.50
8928;DHT22;4499;48.304;11.902;2023-03-23T13:16:22;20.30;72.00
8928;DHT22;4499;48.304;11.902;2023-03-23T13:19:00;20.40;73.20
8928;DHT22;4499;48.304;11.902;2023-03-23T13:21:31;20.40;72.40
8928;DHT22;4499;48.304;11.902;2023-03-23T13:24:02;20.20;71.90
8928;DHT22;4499;48.304;11.902;2023-03-23T13:26:30;20.10;74.20
8928;DHT22;4499;48.304;11.902;2023-03-23T13:29:00;20.10;74.10
8928;DHT22;4499;48.304;11.902;2023-03-23T13:31:30;20.00;75.90
8928;DHT22;4499;48.304;11.902;2023-03-23T13:34:03;20.10;73.80
8928;DHT22;4499;48.304;11.902;2023-03-23T13:36:34;20.10;73.50
8928;DHT22;4499;48.304;11.902;2023-03-23T13:39:04;19.80;74.60
8928;DHT22;4499;48.304;11.902;2023-03-23T13:41:33;19.90;75.20
8928;DHT22;4499;48.304;11.902;2023-03-23T13:44:16;19.70;75.50
8928;DHT22;4499;48.304;11.902;2023-03-23T13:46:54;19.70;76.10
8928;DHT22;4499;48.304;11.902;2023-03-23T13:49:22;19.60;77.80
8928;DHT22;4499;48.304;11.902;2023-03-23T13:52:21;19.60;76.80
8928;DHT22;4499;48.304;11.902;2023-03-23T13:54:50;19.40;76.40
8928;DHT22;4499;48.304;11.902;2023-03-23T14:00:33;19.50;77.50
8928;DHT22;4499;48.304;11.902;2023-03-23T14:03:01;19.60;76.90
8928;DHT22;4499;48.304;11.902;2023-03-23T14:05:35;19.70;77.10
8928;DHT22;4499;48.304;11.902;2023-03-23T14:08:14;19.90;77.20
8928;DHT22;4499;48.304;11.902;2023-03-23T14:10:43;19.90;75.80
8928;DHT22;4499;48.304;11.902;2023-03-23T14:13:16;19.70;75.00
8928;DHT22;4499;48.304;11.902;2023-03-23T14:15:56;19.40;76.00
8928;DHT22;4499;48.304;11.902;2023-03-23T14:18:27;19.30;76.00
8928;DHT22;4499;48.304;11.902;2023-03-23T14:20:55;18.90;75.60
8928;DHT22;4499;48.304;11.902;2023-03-23T14:23:24;18.90;76.80
8928;DHT22;4499;48.304;11.902;2023-03-23T14:25:55;18.70;78.00
8928;DHT22;4499;48.304;11.902;2023-03-23T14:28:26;18.50;77.20
8928;DHT22;4499;48.304;11.902;2023-03-23T14:30:55;18.20;78.60
8928;DHT22;4499;48.304;11.902;2023-03-23T14:33:25;18.20;79.20
8928;DHT22;4499;48.304;11.902;2023-03-23T14:35:56;18.10;80.20
8928;DHT22;4499;48.304;11.902;2023-03-23T14:38:25;18.10;81.60
8928;DHT22;4499;48.304;11.902;2023-03-23T14:41:02;18.10;81.90
8928;DHT22;4499;48.304;11.902;2023-03-23T14:43:30;18.00;82.40
8928;DHT22;4499;48.304;11.902;2023-03-23T14:46:06;17.90;82.40
8928;DHT22;4499;48.304;11.902;2023-03-23T14:48:34;17.90;84.90
8928;DHT22;4499;48.304;11.902;2023-03-23T14:51:04;17.90;87.00
8928;DHT22;4499;48.304;11.902;2023-03-23T14:53:35;17.80;86.40
8928;DHT22;4499;48.304;11.902;2023-03-23T14:56:10;17.70;84.60
8928;DHT22;4499;48.304;11.902;2023-03-23T14:58:38;17.70;85.60
8928;DHT22;4499;48.304;11.902;2023-03-23T15:01:09;17.60;83.50
8928;DHT22;4499;48.304;11.902;2023-03-23T15:03:40;17.60;85.20
8928;DHT22;4499;48.304;11.902;2023-03-23T15:06:13;17.50;85.90
8928;DHT22;4499;48.304;11.902;2023-03-23T15:08:42;17.40;85.90
8928;DHT22;4499;48.304;11.902;2023-03-23T15:11:21;17.40;86.50
8928;DHT22;4499;48.304;11.902;2023-03-23T15:13:51;17.40;87.00
8928;DHT22;4499;48.304;11.902;2023-03-23T15:16:22;17.40;86.20
8928;DHT22;4499;48.304;11.902;2023-03-23T15:18:53;17.40;85.90
8928;DHT22;4499;48.304;11.902;2023-03-23T15:21:27;17.50;88.00
8928;DHT22;4499;48.304;11.902;2023-03-23T15:23:54;17.50;86.50
8928;DHT22;4499;48.304;11.902;2023-03-23T15:26:31;17.50;86.50
8928;DHT22;4499;48.304;11.902;2023-03-23T15:29:13;17.60;86.30
8928;DHT22;4499;48.304;11.902;2023-03-23T15:31:43;17.50;87.70
8928;DHT22;4499;48.304;11.902;2023-03-23T15:34:16;17.50;88.10
8928;DHT22;4499;48.304;11.902;2023-03-23T15:36:44;17.50;86.60
8928;DHT22;4499;48.304;11.902;2023-03-23T15:39:12;17.40;86.80
8928;DHT22;4499;48.304;11.902;2023-03-23T15:41:47;17.30;87.90
8928;DHT22;4499;48.304;11.902;2023-03-23T15:44:22;17.20;88.10
8928;DHT22;4499;48.304;11.902;2023-03-23T15:47:01;17.20;88.30
8928;DHT22;4499;48.304;11.902;2023-03-23T15:49:29;17.20;89.00
8928;DHT22;4499;48.304;11.902;2023-03-23T15:51:56;17.10;89.20
8928;DHT22;4499;48.304;11.902;2023-03-23T15:54:23;17.10;90.00
8928;DHT22;4499;48.304;11.902;2023-03-23T15:56:50;17.10;89.90
8928;DHT22;4499;48.304;11.902;2023-03-23T15:59:17;17.00;90.20
8928;DHT22;4499;48.304;11.902;2023-03-23T16:01:45;16.90;90.60
8928;DHT22;4499;48.304;11.902;2023-03-23T16:04:16;16.90;90.90
8928;DHT22;4499;48.304;11.902;2023-03-23T16:06:45;16.90;90.60
8928;DHT22;4499;48.304;11.902;2023-03-23T16:09:15;16.80;90.20
8928;DHT22;4499;48.304;11.902;2023-03-23T16:11:44;16.80;90.70
8928;DHT22;4499;48.304;11.902;2023-03-23T16:14:12;16.70;90.70
8928;DHT22;4499;48.304;11.902;2023-03-23T16:16:43;16.60;91.10
8928;DHT22;4499;48.304;11.902;2023-03-23T16:19:17;16.50;91.80
8928;DHT22;4499;48.304;11.902;2023-03-23T16:21:47;16.40;92.80
8928;DHT22;4499;48.304;11.902;2023-03-23T16:24:15;16.30;93.40
8928;DHT22;4499;48.304;11.902;2023-03-23T16:26:43;16.20;95.00
8928;DHT22;4499;48.304;11.902;2023-03-23T16:29:14;16.10;94.60
8928;DHT22;4499;48.304;11.902;2023-03-23T16:32:03;16.00;94.90
8928;DHT22;4499;48.304;11.902;2023-03-23T16:34:34;15.90;94.80